Time;durP1;ratioP1;P1;durP2;ratioP2;P2;SDS_P1;SDS_P2;PMS_P1;PMS_P2;Temp;Humidity;BMP_temperature;BMP_pressure;BME280_temperature;BME280_humidity;BME280_pressure;Samples;Min_cycle;Max_cycle;Signal;HPM_P1;HPM_P2
2022/04/19 00:00:55;;;;;;;5.72;3.22;;;;;;;;;;4936054;29;20078;-84
2022/04/19 00:03:22;;;;;;;5.22;2.80;;;;;;;;;;4953513;29;20059;-85
2022/04/19 00:05:49;;;;;;;9.95;3.00;;;;;;;;;;4953882;29;20083;-84
2022/04/19 00:08:17;;;;;;;5.13;2.72;;;;;;;;;;4935449;29;20115;-84
2022/04/19 00:10:44;;;;;;;6.97;3.03;;;;;;;;;;4933572;29;20242;-84
2022/04/19 00:13:12;;;;;;;8.27;3.05;;;;;;;;;;4938002;29;20089;-84
2022/04/19 00:15:40;;;;;;;4.97;3.17;;;;;;;;;;4954083;29;20054;-84
2022/04/19 00:18:08;;;;;;;11.07;3.08;;;;;;;;;;4948769;29;20059;-85
2022/04/19 00:20:35;;;;;;;9.15;3.20;;;;;;;;;;4948553;28;20086;-84
2022/04/19 00:23:12;;;;;;;7.88;3.50;;;;;;;;;;4965251;28;20547;-84
2022/04/19 00:28:54;;;;;;;6.57;3.45;;;;;;;;;;5101305;23;20460;-88
2022/04/19 00:31:22;;;;;;;6.35;3.40;;;;;;;;;;4939379;28;20531;-87
2022/04/19 00:33:49;;;;;;;4.53;3.13;;;;;;;;;;4938346;29;20082;-86
2022/04/19 00:36:18;;;;;;;8.38;3.55;;;;;;;;;;4947864;29;20083;-86
2022/04/19 00:38:45;;;;;;;5.93;2.75;;;;;;;;;;4956206;29;20162;-86
2022/04/19 00:41:12;;;;;;;7.28;3.03;;;;;;;;;;4960185;29;20095;-86
2022/04/19 00:43:40;;;;;;;5.82;2.97;;;;;;;;;;4948006;29;20535;-87
2022/04/19 00:46:07;;;;;;;6.65;2.95;;;;;;;;;;4955246;29;20493;-89
2022/04/19 00:48:35;;;;;;;6.55;3.53;;;;;;;;;;4938246;29;20047;-89
2022/04/19 00:51:02;;;;;;;6.88;3.05;;;;;;;;;;4938874;29;20118;-89
2022/04/19 00:53:29;;;;;;;7.20;3.38;;;;;;;;;;4940438;29;20047;-89
2022/04/19 00:55:58;;;;;;;10.07;4.07;;;;;;;;;;4937027;29;20197;-89
2022/04/19 00:58:25;;;;;;;8.52;3.40;;;;;;;;;;4953404;28;20082;-88
2022/04/19 01:00:53;;;;;;;6.43;3.65;;;;;;;;;;4941414;29;20133;-88
2022/04/19 01:03:21;;;;;;;6.93;3.35;;;;;;;;;;4952616;29;20126;-89
2022/04/19 01:05:53;;;;;;;8.90;3.53;;;;;;;;;;4942127;29;20058;-89
2022/04/19 01:08:21;;;;;;;7.88;3.35;;;;;;;;;;4935929;29;20055;-90
2022/04/19 01:10:48;;;;;;;8.00;4.35;;;;;;;;;;4933101;29;20113;-89
2022/04/19 01:13:19;;;;;;;14.52;4.43;;;;;;;;;;4931639;29;20055;-89
2022/04/19 01:15:47;;;;;;;10.35;3.78;;;;;;;;;;4930151;29;20551;-89
2022/04/19 01:18:20;;;;;;;7.97;4.28;;;;;;;;;;4932713;29;20115;-89
2022/04/19 01:20:50;;;;;;;6.13;3.33;;;;;;;;;;4933421;29;20047;-89
2022/04/19 01:23:22;;;;;;;5.25;3.45;;;;;;;;;;4929093;29;20122;-89
2022/04/19 01:25:49;;;;;;;8.20;3.85;;;;;;;;;;4955382;28;20079;-90
2022/04/19 01:28:19;;;;;;;9.20;4.28;;;;;;;;;;4960591;28;20063;-89
2022/04/19 01:30:54;;;;;;;9.77;3.90;;;;;;;;;;4955631;28;20074;-89
2022/04/19 01:33:23;;;;;;;7.05;3.55;;;;;;;;;;4939387;29;20071;-90
2022/04/19 01:35:50;;;;;;;8.88;4.13;;;;;;;;;;4936391;29;20058;-89
2022/04/19 01:38:17;;;;;;;11.25;4.57;;;;;;;;;;4941552;29;20469;-89
2022/04/19 01:40:44;;;;;;;6.60;3.97;;;;;;;;;;4939135;29;20055;-89
2022/04/19 01:43:12;;;;;;;7.60;3.85;;;;;;;;;;4947359;29;20083;-90
2022/04/19 01:45:40;;;;;;;9.82;4.63;;;;;;;;;;4956547;29;20130;-90
2022/04/19 01:48:08;;;;;;;17.13;4.05;;;;;;;;;;4938996;29;20416;-90
2022/04/19 01:50:37;;;;;;;11.57;3.88;;;;;;;;;;4957099;28;20560;-90
2022/04/19 01:53:05;;;;;;;7.00;3.75;;;;;;;;;;4954342;29;20077;-88
2022/04/19 01:55:32;;;;;;;7.95;4.05;;;;;;;;;;4938209;23;20362;-82
2022/04/19 01:58:00;;;;;;;7.43;4.25;;;;;;;;;;4930055;29;20102;-82
2022/04/19 02:00:30;;;;;;;7.35;3.92;;;;;;;;;;4920706;29;20123;-82
2022/04/19 02:02:58;;;;;;;9.40;4.07;;;;;;;;;;4909636;29;20458;-82
2022/04/19 02:05:25;;;;;;;9.75;4.25;;;;;;;;;;4909698;29;20162;-82
2022/04/19 02:07:53;;;;;;;9.60;4.13;;;;;;;;;;4910383;29;20171;-82
2022/04/19 02:10:20;;;;;;;7.70;4.38;;;;;;;;;;4910556;29;20167;-83
2022/04/19 02:12:49;;;;;;;9.02;4.28;;;;;;;;;;4909859;29;20091;-82
2022/04/19 02:15:17;;;;;;;8.10;3.95;;;;;;;;;;4909676;29;20131;-82
2022/04/19 02:17:45;;;;;;;10.02;4.43;;;;;;;;;;4910850;29;20087;-82
2022/04/19 02:20:13;;;;;;;11.23;4.78;;;;;;;;;;4908980;29;20361;-81
2022/04/19 02:22:41;;;;;;;10.75;4.85;;;;;;;;;;4909247;29;20056;-82
2022/04/19 02:25:11;;;;;;;10.23;5.35;;;;;;;;;;4909726;29;20160;-82
2022/04/19 02:27:40;;;;;;;10.95;5.07;;;;;;;;;;4908740;29;20048;-82
2022/04/19 02:30:13;;;;;;;14.55;6.15;;;;;;;;;;4909177;29;20055;-82
2022/04/19 02:32:51;;;;;;;11.15;6.20;;;;;;;;;;4909292;29;20090;-82
2022/04/19 02:35:20;;;;;;;13.77;6.00;;;;;;;;;;4908836;29;20454;-82
2022/04/19 02:37:53;;;;;;;11.52;5.68;;;;;;;;;;4909778;29;20063;-82
2022/04/19 02:40:21;;;;;;;11.10;5.15;;;;;;;;;;4909944;29;20155;-82
2022/04/19 02:42:49;;;;;;;12.38;5.35;;;;;;;;;;4908684;29;20087;-82
2022/04/19 02:45:19;;;;;;;8.80;5.00;;;;;;;;;;4910545;29;20064;-82
2022/04/19 02:47:47;;;;;;;11.15;5.40;;;;;;;;;;4909350;29;20310;-82
2022/04/19 02:50:16;;;;;;;12.20;4.75;;;;;;;;;;4908700;29;20493;-82
2022/04/19 02:52:44;;;;;;;10.25;5.10;;;;;;;;;;4910534;29;20051;-81
2022/04/19 02:55:12;;;;;;;9.40;5.07;;;;;;;;;;4909989;29;20052;-81
2022/04/19 02:57:39;;;;;;;15.75;6.65;;;;;;;;;;4908793;29;20195;-81
2022/04/19 03:00:07;;;;;;;12.25;5.85;;;;;;;;;;4908420;29;20594;-81
2022/04/19 03:02:34;;;;;;;13.05;6.10;;;;;;;;;;4908242;29;20060;-81
2022/04/19 03:05:01;;;;;;;10.27;5.55;;;;;;;;;;4907887;29;20108;-82
2022/04/19 03:07:28;;;;;;;21.38;7.00;;;;;;;;;;4908053;29;20127;-82
2022/04/19 03:09:55;;;;;;;13.15;6.80;;;;;;;;;;4906968;29;20080;-82
2022/04/19 03:12:23;;;;;;;12.88;6.53;;;;;;;;;;4908934;29;20084;-82
2022/04/19 03:14:50;;;;;;;13.85;6.55;;;;;;;;;;4908587;29;20079;-82
2022/04/19 03:17:17;;;;;;;13.75;6.63;;;;;;;;;;4909594;29;20347;-82
2022/04/19 03:19:44;;;;;;;15.07;6.25;;;;;;;;;;4907870;29;20139;-81
2022/04/19 03:22:11;;;;;;;15.13;6.18;;;;;;;;;;4908912;29;20087;-81
2022/04/19 03:27:43;;;;;;;9.25;5.85;;;;;;;;;;4909370;29;20058;-81
2022/04/19 03:30:10;;;;;;;;;;;;;;;;;;4908195;29;20401;-81
2022/04/19 03:32:37;;;;;;;11.77;5.63;;;;;;;;;;4909337;29;20299;-82
2022/04/19 03:35:05;;;;;;;13.77;6.38;;;;;;;;;;4909702;29;20131;-81
2022/04/19 03:37:33;;;;;;;10.35;5.75;;;;;;;;;;4907660;29;20135;-82
2022/04/19 03:43:32;;;;;;;12.85;5.68;;;;;;;;;;4951368;23;20130;-81
2022/04/19 03:46:00;;;;;;;9.95;5.60;;;;;;;;;;4962097;28;20223;-82
2022/04/19 03:48:28;;;;;;;20.85;6.22;;;;;;;;;;4946588;29;20500;-82
2022/04/19 03:50:55;;;;;;;10.07;5.68;;;;;;;;;;4946362;29;20392;-81
2022/04/19 03:53:22;;;;;;;15.73;6.03;;;;;;;;;;4961551;28;20146;-81
2022/04/19 03:55:49;;;;;;;10.98;6.15;;;;;;;;;;4946944;29;20481;-82
2022/04/19 03:58:17;;;;;;;14.00;7.15;;;;;;;;;;4955351;28;20749;-82
2022/04/19 04:00:44;;;;;;;9.88;4.88;;;;;;;;;;4930138;28;20445;-82
2022/04/19 04:03:11;;;;;;;12.25;5.78;;;;;;;;;;4944965;28;20113;-82
2022/04/19 04:05:39;;;;;;;9.40;4.95;;;;;;;;;;4931234;29;20129;-82
2022/04/19 04:08:06;;;;;;;11.43;6.05;;;;;;;;;;4931841;29;20059;-82
2022/04/19 04:10:33;;;;;;;16.55;5.97;;;;;;;;;;4931518;29;20134;-82
2022/04/19 04:13:01;;;;;;;13.50;5.18;;;;;;;;;;4931641;29;20138;-82
2022/04/19 04:15:28;;;;;;;10.18;5.45;;;;;;;;;;4931576;29;20522;-82
2022/04/19 04:17:55;;;;;;;8.80;5.22;;;;;;;;;;4931684;29;20063;-82
2022/04/19 04:20:22;;;;;;;11.00;4.97;;;;;;;;;;4930591;29;20182;-82
2022/04/19 04:22:49;;;;;;;11.75;5.13;;;;;;;;;;4947777;28;20085;-81
2022/04/19 04:25:18;;;;;;;9.73;4.78;;;;;;;;;;4936411;29;20055;-81
2022/04/19 04:27:45;;;;;;;14.23;6.25;;;;;;;;;;4952454;29;20097;-81
2022/04/19 04:30:12;;;;;;;12.10;5.30;;;;;;;;;;4967849;28;20134;-81
2022/04/19 04:32:40;;;;;;;14.15;5.72;;;;;;;;;;4934033;28;20074;-81
2022/04/19 04:35:08;;;;;;;17.75;5.50;;;;;;;;;;4945885;29;20110;-81
2022/04/19 04:37:35;;;;;;;11.02;5.30;;;;;;;;;;4931853;29;20117;-81
2022/04/19 04:40:03;;;;;;;12.50;5.32;;;;;;;;;;4940536;29;20058;-81
2022/04/19 04:42:30;;;;;;;18.75;5.70;;;;;;;;;;4929462;29;20099;-81
2022/04/19 04:44:57;;;;;;;11.00;5.82;;;;;;;;;;4948997;29;20055;-81
2022/04/19 04:50:10;;;;;;;20.50;5.63;;;;;;;;;;4950653;29;20094;-80
2022/04/19 04:52:38;;;;;;;10.45;4.75;;;;;;;;;;4932410;28;20087;-80
2022/04/19 04:55:07;;;;;;;12.40;5.00;;;;;;;;;;4959830;28;20807;-80
2022/04/19 04:57:34;;;;;;;19.77;4.72;;;;;;;;;;4942413;28;20133;-80
2022/04/19 05:00:01;;;;;;;11.00;5.90;;;;;;;;;;4941029;29;20047;-80
2022/04/19 05:02:29;;;;;;;8.90;5.10;;;;;;;;;;4951399;29;20480;-79
2022/04/19 05:04:56;;;;;;;9.57;4.75;;;;;;;;;;4934567;28;20130;-79
2022/04/19 05:07:24;;;;;;;14.52;5.22;;;;;;;;;;4954730;29;20086;-79
2022/04/19 05:09:57;;;;;;;8.43;4.72;;;;;;;;;;4938452;29;20457;-81
2022/04/19 05:12:24;;;;;;;9.00;4.93;;;;;;;;;;4937677;29;20063;-80
2022/04/19 05:14:51;;;;;;;10.00;4.82;;;;;;;;;;4938924;29;20069;-80
2022/04/19 05:17:18;;;;;;;11.13;4.68;;;;;;;;;;4937640;29;20059;-80
2022/04/19 05:19:46;;;;;;;9.48;4.47;;;;;;;;;;4940585;28;20146;-80
2022/04/19 05:22:13;;;;;;;11.35;4.65;;;;;;;;;;4959727;28;20585;-80
2022/04/19 05:24:40;;;;;;;11.98;4.55;;;;;;;;;;4935085;29;20137;-80
2022/04/19 05:27:07;;;;;;;9.85;4.65;;;;;;;;;;4932456;29;20166;-80
2022/04/19 05:29:34;;;;;;;12.43;4.63;;;;;;;;;;4929435;29;20496;-79
2022/04/19 05:32:02;;;;;;;7.97;4.45;;;;;;;;;;4950179;29;20130;-80
2022/04/19 05:34:29;;;;;;;9.60;5.40;;;;;;;;;;4953117;28;20479;-87
2022/04/19 05:36:56;;;;;;;11.40;5.22;;;;;;;;;;4934652;29;20083;-87
2022/04/19 05:39:23;;;;;;;8.85;4.47;;;;;;;;;;4951609;28;20239;-88
2022/04/19 05:41:50;;;;;;;9.52;4.55;;;;;;;;;;4951361;28;20059;-88
2022/04/19 05:44:18;;;;;;;9.13;4.32;;;;;;;;;;4950579;28;20126;-88
2022/04/19 05:46:45;;;;;;;9.70;4.53;;;;;;;;;;4933688;29;20055;-87
2022/04/19 05:49:13;;;;;;;15.07;5.57;;;;;;;;;;4931229;29;20098;-87
2022/04/19 05:51:42;;;;;;;14.32;5.53;;;;;;;;;;4948769;28;20059;-87
2022/04/19 05:54:09;;;;;;;8.38;4.65;;;;;;;;;;4933104;29;20555;-87
2022/04/19 05:56:36;;;;;;;9.02;4.20;;;;;;;;;;4950168;29;20625;-88
2022/04/19 05:59:04;;;;;;;10.02;4.88;;;;;;;;;;4950060;28;20114;-88
2022/04/19 06:04:51;;;;;;;15.13;4.85;;;;;;;;;;4932752;29;20055;-87
2022/04/19 06:07:04;;;;;;;7.95;3.42;;;;;;;;;;4950197;28;20158;-88
2022/04/19 06:09:31;;;;;;;6.38;3.70;;;;;;;;;;4948946;29;20201;-88
2022/04/19 06:12:00;;;;;;;6.35;3.55;;;;;;;;;;4932599;29;20189;-87
2022/04/19 06:14:28;;;;;;;5.82;3.65;;;;;;;;;;4950304;28;20115;-87
2022/04/19 06:16:55;;;;;;;6.32;3.17;;;;;;;;;;4949089;28;20051;-87
2022/04/19 06:19:22;;;;;;;6.03;3.63;;;;;;;;;;4949421;29;20055;-88
2022/04/19 06:21:49;;;;;;;5.28;3.42;;;;;;;;;;4949327;28;20142;-88
2022/04/19 06:24:17;;;;;;;7.75;3.17;;;;;;;;;;4950749;28;20399;-88
2022/04/19 06:26:44;;;;;;;6.93;3.05;;;;;;;;;;4932581;29;20142;-88
2022/04/19 06:29:11;;;;;;;4.35;3.17;;;;;;;;;;4949093;28;20134;-88
2022/04/19 06:31:40;;;;;;;6.85;2.85;;;;;;;;;;4948869;29;20134;-88
2022/04/19 06:34:08;;;;;;;4.18;2.63;;;;;;;;;;4932209;29;20051;-88
2022/04/19 06:36:35;;;;;;;7.40;3.17;;;;;;;;;;4932116;29;20090;-88
2022/04/19 06:39:02;;;;;;;3.80;2.33;;;;;;;;;;4933646;29;20059;-87
2022/04/19 06:41:30;;;;;;;6.75;2.45;;;;;;;;;;4950589;28;20372;-87
2022/04/19 06:43:59;;;;;;;10.65;3.00;;;;;;;;;;4952472;29;20091;-87
2022/04/19 06:46:26;;;;;;;5.65;2.95;;;;;;;;;;4952074;29;20055;-87
2022/04/19 06:48:54;;;;;;;6.45;2.70;;;;;;;;;;4933336;29;20114;-87
2022/04/19 06:51:22;;;;;;;6.70;3.60;;;;;;;;;;4932876;29;20134;-87
2022/04/19 06:53:59;;;;;;;7.18;2.75;;;;;;;;;;4933839;29;20047;-87
2022/04/19 06:56:27;;;;;;;5.05;2.35;;;;;;;;;;4964708;28;20227;-87
2022/04/19 06:58:56;;;;;;;5.80;2.67;;;;;;;;;;4964556;28;20461;-87
2022/04/19 07:01:26;;;;;;;4.80;2.53;;;;;;;;;;4964615;28;20062;-87
2022/04/19 07:03:54;;;;;;;5.47;2.50;;;;;;;;;;4949756;29;20114;-88
2022/04/19 07:06:21;;;;;;;10.23;2.67;;;;;;;;;;4967871;28;20083;-87
2022/04/19 07:08:48;;;;;;;4.72;2.25;;;;;;;;;;4964423;28;20461;-87
2022/04/19 07:11:16;;;;;;;7.28;2.50;;;;;;;;;;4949103;29;20141;-87
2022/04/19 07:13:43;;;;;;;3.08;2.05;;;;;;;;;;4964367;28;20570;-87
2022/04/19 07:16:10;;;;;;;9.73;2.30;;;;;;;;;;4948633;29;20453;-86
2022/04/19 07:18:38;;;;;;;4.50;2.33;;;;;;;;;;4964266;28;20110;-88
2022/04/19 07:26:47;;;;;;;5.82;2.33;;;;;;;;;;4949125;29;20110;-87
2022/04/19 07:29:18;;;;;;;6.10;2.70;;;;;;;;;;4963936;28;20082;-87
2022/04/19 07:31:46;;;;;;;4.20;2.28;;;;;;;;;;4963027;28;20055;-88
2022/04/19 07:34:14;;;;;;;4.13;2.25;;;;;;;;;;4945441;29;20520;-88
2022/04/19 07:36:42;;;;;;;3.15;2.13;;;;;;;;;;4946914;29;20055;-87
2022/04/19 07:39:13;;;;;;;4.38;2.08;;;;;;;;;;4930421;29;20086;-87
2022/04/19 07:41:45;;;;;;;10.82;2.92;;;;;;;;;;4929312;29;20567;-88
2022/04/19 07:44:18;;;;;;;3.80;1.92;;;;;;;;;;4946570;29;20051;-89
2022/04/19 07:46:46;;;;;;;4.03;1.90;;;;;;;;;;4947694;29;20059;-89
2022/04/19 07:49:13;;;;;;;6.78;2.47;;;;;;;;;;4946332;29;20055;-88
2022/04/19 07:51:40;;;;;;;2.90;1.80;;;;;;;;;;4928911;29;20529;-89
2022/04/19 07:54:07;;;;;;;7.15;2.05;;;;;;;;;;4929302;29;20130;-89
2022/04/19 07:56:35;;;;;;;5.80;2.10;;;;;;;;;;4929144;29;20157;-88
2022/04/19 07:59:03;;;;;;;8.82;2.50;;;;;;;;;;4929078;29;20110;-88
2022/04/19 08:01:32;;;;;;;3.78;2.15;;;;;;;;;;4946443;29;20710;-88
2022/04/19 08:04:00;;;;;;;5.05;2.15;;;;;;;;;;4946540;29;20059;-89
2022/04/19 08:06:28;;;;;;;5.85;2.08;;;;;;;;;;4946185;29;20146;-88
2022/04/19 08:08:55;;;;;;;2.40;1.60;;;;;;;;;;4945593;29;20158;-89
2022/04/19 08:11:23;;;;;;;5.95;2.20;;;;;;;;;;4930312;29;20137;-89
2022/04/19 08:13:50;;;;;;;5.90;2.72;;;;;;;;;;4932533;29;20106;-88
2022/04/19 08:16:17;;;;;;;4.47;2.70;;;;;;;;;;4946660;29;20473;-88
2022/04/19 08:18:44;;;;;;;4.63;2.80;;;;;;;;;;4945932;29;20055;-88
2022/04/19 08:21:12;;;;;;;3.17;2.30;;;;;;;;;;4928801;29;20055;-88
2022/04/19 08:23:39;;;;;;;3.78;2.05;;;;;;;;;;4929223;29;20465;-89
2022/04/19 08:26:06;;;;;;;7.60;2.00;;;;;;;;;;4928895;29;20143;-88
2022/04/19 08:28:33;;;;;;;2.92;1.90;;;;;;;;;;4946403;29;20154;-89
2022/04/19 08:31:00;;;;;;;3.60;2.05;;;;;;;;;;4945950;29;20453;-87
2022/04/19 08:33:28;;;;;;;3.95;2.10;;;;;;;;;;4928917;29;20134;-88
2022/04/19 08:35:55;;;;;;;4.45;2.30;;;;;;;;;;4946098;29;20079;-88
2022/04/19 08:38:22;;;;;;;7.70;2.70;;;;;;;;;;4952014;29;20117;-88
2022/04/19 08:40:50;;;;;;;7.90;1.70;;;;;;;;;;4947850;28;20105;-88
2022/04/19 08:43:17;;;;;;;4.63;1.75;;;;;;;;;;4928701;29;20087;-88
2022/04/19 08:45:45;;;;;;;3.05;1.75;;;;;;;;;;4946098;29;20078;-89
2022/04/19 08:48:13;;;;;;;2.40;1.42;;;;;;;;;;4945875;29;20611;-88
2022/04/19 08:50:40;;;;;;;3.30;1.60;;;;;;;;;;4928522;29;20470;-88
2022/04/19 08:58:40;;;;;;;4.80;2.25;;;;;;;;;;4945279;29;20106;-88
2022/04/19 09:01:07;;;;;;;4.55;2.55;;;;;;;;;;4945525;29;20095;-88
2022/04/19 09:03:34;;;;;;;5.78;2.40;;;;;;;;;;4928260;29;20412;-88
2022/04/19 09:06:03;;;;;;;2.53;1.90;;;;;;;;;;4927762;29;20467;-89
2022/04/19 09:08:31;;;;;;;3.78;2.03;;;;;;;;;;4929186;29;20063;-88
2022/04/19 09:11:05;;;;;;;3.47;2.00;;;;;;;;;;4928094;29;20055;-88
2022/04/19 09:13:33;;;;;;;3.60;2.30;;;;;;;;;;4928992;29;20117;-89
2022/04/19 09:16:07;;;;;;;3.40;2.10;;;;;;;;;;4928169;29;20306;-88
2022/04/19 09:18:38;;;;;;;3.03;2.03;;;;;;;;;;4927878;29;20086;-88
2022/04/19 09:21:05;;;;;;;3.45;2.47;;;;;;;;;;4928044;29;20145;-88
2022/04/19 09:23:34;;;;;;;13.93;2.75;;;;;;;;;;4927882;29;20426;-88
2022/04/19 09:26:03;;;;;;;3.88;1.90;;;;;;;;;;4945102;29;20544;-88
2022/04/19 09:28:31;;;;;;;4.60;2.03;;;;;;;;;;4927796;29;20059;-89
2022/04/19 09:30:59;;;;;;;7.10;2.00;;;;;;;;;;4911998;29;20081;-89
2022/04/19 09:33:30;;;;;;;8.00;1.95;;;;;;;;;;4945673;29;20055;-89
2022/04/19 09:35:58;;;;;;;3.72;1.90;;;;;;;;;;4945058;29;20156;-89
2022/04/19 09:38:37;;;;;;;12.65;2.70;;;;;;;;;;4929003;29;20061;-89
2022/04/19 09:41:05;;;;;;;3.95;2.28;;;;;;;;;;4927919;29;20142;-88
2022/04/19 09:44:05;;;;;;;5.70;2.40;;;;;;;;;;4945229;29;20051;-89
2022/04/19 09:46:33;;;;;;;3.65;1.73;;;;;;;;;;4928148;29;20051;-88
2022/04/19 09:49:00;;;;;;;4.95;1.88;;;;;;;;;;4927319;29;20528;-89
2022/04/19 09:51:31;;;;;;;5.57;1.77;;;;;;;;;;4944344;28;20174;-89
2022/04/19 09:53:58;;;;;;;4.53;1.70;;;;;;;;;;4949294;29;20106;-89
2022/04/19 09:56:33;;;;;;;4.63;2.30;;;;;;;;;;4932579;29;20161;-88
2022/04/19 09:59:16;;;;;;;3.55;2.08;;;;;;;;;;4948871;29;20556;-88
2022/04/19 10:10:03;;;;;;;7.03;1.70;;;;;;;;;;4947690;29;20085;-88
2022/04/19 10:12:31;;;;;;;5.20;1.90;;;;;;;;;;4947376;29;20066;-88
2022/04/19 10:14:59;;;;;;;3.40;1.63;;;;;;;;;;4948812;29;20090;-88
2022/04/19 10:17:26;;;;;;;4.47;1.80;;;;;;;;;;4948697;29;20055;-88
2022/04/19 10:19:53;;;;;;;20.60;3.42;;;;;;;;;;4933356;29;20084;-88
2022/04/19 10:22:21;;;;;;;4.63;2.88;;;;;;;;;;4949331;29;20158;-88
2022/04/19 10:24:52;;;;;;;4.40;1.77;;;;;;;;;;4931481;29;20150;-86
2022/04/19 10:27:20;;;;;;;2.85;1.90;;;;;;;;;;4930930;29;20102;-89
2022/04/19 10:29:51;;;;;;;3.58;1.65;;;;;;;;;;4947868;29;20050;-89
2022/04/19 10:32:28;;;;;;;2.63;1.67;;;;;;;;;;4947583;29;20059;-88
2022/04/19 10:35:03;;;;;;;11.82;1.83;;;;;;;;;;4947228;29;20062;-89
2022/04/19 10:37:31;;;;;;;3.45;1.33;;;;;;;;;;4930798;29;20051;-88
2022/04/19 10:39:58;;;;;;;5.57;1.77;;;;;;;;;;4947634;29;20579;-88
2022/04/19 10:42:29;;;;;;;6.63;1.77;;;;;;;;;;4947799;29;20047;-89
2022/04/19 10:44:56;;;;;;;3.75;1.42;;;;;;;;;;4947647;29;20106;-88
2022/04/19 10:47:24;;;;;;;1.88;1.40;;;;;;;;;;4947443;29;20075;-88
2022/04/19 10:50:00;;;;;;;2.30;1.38;;;;;;;;;;4947528;29;20066;-90
2022/04/19 10:52:45;;;;;;;1.70;1.38;;;;;;;;;;4947843;29;20082;-88
2022/04/19 10:55:25;;;;;;;4.65;1.35;;;;;;;;;;4930994;29;20086;-89
2022/04/19 10:58:09;;;;;;;2.97;1.52;;;;;;;;;;4947560;29;20139;-88
2022/04/19 11:00:51;;;;;;;1.80;1.25;;;;;;;;;;4947291;29;20114;-88
2022/04/19 11:03:45;;;;;;;4.68;1.38;;;;;;;;;;4946595;28;20058;-88
2022/04/19 11:06:31;;;;;;;2.92;1.60;;;;;;;;;;4947222;29;20153;-89
2022/04/19 11:09:19;;;;;;;4.25;1.55;;;;;;;;;;4947488;29;20118;-88
2022/04/19 11:11:47;;;;;;;4.88;1.23;;;;;;;;;;4946254;29;20584;-88
2022/04/19 11:14:35;;;;;;;4.30;1.67;;;;;;;;;;4947225;29;20059;-88
2022/04/19 11:17:19;;;;;;;8.10;1.90;;;;;;;;;;4930150;29;20580;-88
2022/04/19 11:20:05;;;;;;;4.53;1.20;;;;;;;;;;4946880;29;20051;-89
2022/04/19 11:22:44;;;;;;;4.22;1.42;;;;;;;;;;4947164;29;20331;-88
2022/04/19 11:25:11;;;;;;;2.92;1.77;;;;;;;;;;4947256;29;20102;-88
2022/04/19 11:27:53;;;;;;;2.20;1.60;;;;;;;;;;4929760;29;20481;-88
2022/04/19 11:30:25;;;;;;;5.15;1.50;;;;;;;;;;4931250;29;20393;-89
2022/04/19 11:32:53;;;;;;;2.33;1.30;;;;;;;;;;4947948;29;20054;-88
2022/04/19 11:35:20;;;;;;;2.25;1.30;;;;;;;;;;4947119;29;20142;-89
2022/04/19 11:37:48;;;;;;;5.13;1.55;;;;;;;;;;4947315;29;20090;-89
2022/04/19 11:48:41;;;;;;;3.70;1.20;;;;;;;;;;4946400;29;20078;-88
2022/04/19 11:51:12;;;;;;;3.30;1.23;;;;;;;;;;4928733;29;20055;-89
2022/04/19 11:53:40;;;;;;;5.88;1.40;;;;;;;;;;4946731;29;20134;-88
2022/04/19 11:56:07;;;;;;;4.25;1.20;;;;;;;;;;4946560;29;20154;-88
2022/04/19 11:58:38;;;;;;;1.50;0.93;;;;;;;;;;4946581;29;20066;-89
2022/04/19 12:01:07;;;;;;;5.53;1.42;;;;;;;;;;4929381;29;20142;-88
2022/04/19 12:03:36;;;;;;;3.30;1.30;;;;;;;;;;4946301;29;20330;-88
2022/04/19 12:06:14;;;;;;;7.32;1.80;;;;;;;;;;4946024;29;20058;-88
2022/04/19 12:08:42;;;;;;;4.55;1.30;;;;;;;;;;4945880;29;20043;-89
2022/04/19 12:11:12;;;;;;;2.20;1.00;;;;;;;;;;4945936;29;20142;-89
2022/04/19 12:13:41;;;;;;;1.77;1.02;;;;;;;;;;4946534;29;20161;-89
2022/04/19 12:16:26;;;;;;;2.92;1.35;;;;;;;;;;4945500;28;20086;-89
2022/04/19 12:18:54;;;;;;;4.30;2.03;;;;;;;;;;4946191;29;20642;-88
2022/04/19 12:21:39;;;;;;;2.63;1.20;;;;;;;;;;4945782;29;20074;-89
2022/04/19 12:24:08;;;;;;;5.85;1.38;;;;;;;;;;4946210;29;20137;-89
2022/04/19 12:26:35;;;;;;;5.28;1.52;;;;;;;;;;4946373;29;20051;-88
2022/04/19 12:29:06;;;;;;;2.53;1.63;;;;;;;;;;4945780;29;20075;-88
2022/04/19 12:31:35;;;;;;;4.93;1.40;;;;;;;;;;4945604;29;20135;-88
2022/04/19 12:34:03;;;;;;;2.97;1.45;;;;;;;;;;4949537;29;20065;-87
2022/04/19 12:36:46;;;;;;;2.25;1.50;;;;;;;;;;4934026;29;20138;-88
2022/04/19 12:39:14;;;;;;;2.15;1.52;;;;;;;;;;4934286;29;20150;-88
2022/04/19 12:41:43;;;;;;;4.03;1.50;;;;;;;;;;4950549;29;20058;-89
2022/04/19 12:44:17;;;;;;;4.05;1.67;;;;;;;;;;4929260;29;20142;-88
2022/04/19 12:46:45;;;;;;;4.60;1.67;;;;;;;;;;4946223;29;20074;-88
2022/04/19 12:49:29;;;;;;;9.38;1.75;;;;;;;;;;4945543;29;20051;-88
2022/04/19 12:51:59;;;;;;;2.65;1.55;;;;;;;;;;4945914;29;20055;-88
2022/04/19 12:54:30;;;;;;;5.18;1.77;;;;;;;;;;4945564;29;20500;-89
2022/04/19 13:00:42;;;;;;;9.48;1.90;;;;;;;;;;4946465;29;20153;-87
2022/04/19 13:03:09;;;;;;;6.45;1.83;;;;;;;;;;4945886;29;20043;-88
2022/04/19 13:14:17;;;;;;;2.88;1.30;;;;;;;;;;4945357;29;20469;-88
2022/04/19 13:16:44;;;;;;;7.45;1.48;;;;;;;;;;4928497;29;20225;-88
2022/04/19 13:19:13;;;;;;;6.30;1.40;;;;;;;;;;4945154;29;20145;-87
2022/04/19 13:21:40;;;;;;;9.57;1.60;;;;;;;;;;4945268;29;20142;-88
2022/04/19 13:24:08;;;;;;;2.88;1.20;;;;;;;;;;4927820;29;20114;-88
2022/04/19 13:26:36;;;;;;;2.65;1.27;;;;;;;;;;4929025;29;20082;-88
2022/04/19 13:29:07;;;;;;;3.55;1.30;;;;;;;;;;4932729;29;20114;-88
2022/04/19 13:31:34;;;;;;;5.45;1.58;;;;;;;;;;4931627;29;20136;-88
2022/04/19 13:34:02;;;;;;;4.28;1.63;;;;;;;;;;4932045;29;20093;-88
2022/04/19 13:36:29;;;;;;;2.17;1.08;;;;;;;;;;4948499;29;20146;-88
2022/04/19 13:38:56;;;;;;;3.22;1.20;;;;;;;;;;4949241;29;20159;-88
2022/04/19 13:41:24;;;;;;;2.08;0.85;;;;;;;;;;4948477;29;20137;-87
2022/04/19 13:43:52;;;;;;;2.88;1.17;;;;;;;;;;4949661;29;20129;-88
2022/04/19 13:46:19;;;;;;;12.27;1.92;;;;;;;;;;4931630;29;20134;-88
2022/04/19 13:48:47;;;;;;;5.80;1.00;;;;;;;;;;4931286;29;20070;-87
2022/04/19 13:51:14;;;;;;;4.05;1.45;;;;;;;;;;4931221;29;20284;-88
2022/04/19 13:53:41;;;;;;;1.67;0.98;;;;;;;;;;4948385;28;20645;-84
2022/04/19 13:56:08;;;;;;;9.05;1.33;;;;;;;;;;4941577;29;20481;-88
2022/04/19 13:58:36;;;;;;;1.42;1.02;;;;;;;;;;4950400;28;20206;-88
2022/04/19 14:01:03;;;;;;;3.97;1.20;;;;;;;;;;4949212;29;20079;-88
2022/04/19 14:03:31;;;;;;;3.55;0.95;;;;;;;;;;4950276;28;20496;-88
2022/04/19 14:06:00;;;;;;;1.65;1.13;;;;;;;;;;4949102;29;20083;-88
2022/04/19 14:08:28;;;;;;;4.63;1.25;;;;;;;;;;4947721;29;20596;-88
2022/04/19 14:10:58;;;;;;;2.72;1.17;;;;;;;;;;4949363;28;20087;-88
2022/04/19 14:13:25;;;;;;;4.38;1.48;;;;;;;;;;4948879;29;20070;-88
2022/04/19 14:15:52;;;;;;;5.03;1.77;;;;;;;;;;4947986;29;20121;-88
2022/04/19 14:18:20;;;;;;;3.47;1.35;;;;;;;;;;4947195;29;20559;-79
2022/04/19 14:20:48;;;;;;;10.90;1.55;;;;;;;;;;4946705;29;20051;-79
2022/04/19 14:23:16;;;;;;;2.75;1.30;;;;;;;;;;4947200;29;20090;-79
2022/04/19 14:25:48;;;;;;;3.45;1.42;;;;;;;;;;4946850;29;20082;-79
2022/04/19 14:28:15;;;;;;;5.45;1.40;;;;;;;;;;4946800;29;20417;-78
2022/04/19 14:33:29;;;;;;;2.63;1.33;;;;;;;;;;4948003;29;20066;-79
2022/04/19 14:35:56;;;;;;;3.10;1.42;;;;;;;;;;4949666;28;20599;-79
2022/04/19 14:38:23;;;;;;;6.88;1.45;;;;;;;;;;4945523;28;20114;-79
2022/04/19 14:40:51;;;;;;;1.65;0.98;;;;;;;;;;4946917;29;20390;-79
2022/04/19 14:43:18;;;;;;;2.97;1.27;;;;;;;;;;4948145;29;20133;-79
2022/04/19 14:45:46;;;;;;;5.70;1.17;;;;;;;;;;4948149;29;20507;-79
2022/04/19 14:48:13;;;;;;;6.13;1.30;;;;;;;;;;4948051;28;20110;-79
2022/04/19 14:53:32;;;;;;;3.35;1.30;;;;;;;;;;4949345;29;20463;-80
2022/04/19 14:56:01;;;;;;;13.55;1.40;;;;;;;;;;4949693;28;20070;-80
2022/04/19 14:58:28;;;;;;;2.95;1.55;;;;;;;;;;4947874;29;20524;-80
2022/04/19 15:01:01;;;;;;;4.10;1.13;;;;;;;;;;4947641;29;20055;-80
2022/04/19 15:03:29;;;;;;;2.47;1.30;;;;;;;;;;4948071;29;20058;-80
2022/04/19 15:05:56;;;;;;;5.57;1.40;;;;;;;;;;4947746;29;20767;-80
2022/04/19 15:08:23;;;;;;;3.35;1.50;;;;;;;;;;4949275;28;20146;-80
2022/04/19 15:10:51;;;;;;;3.65;1.20;;;;;;;;;;4947596;29;20063;-80
2022/04/19 15:13:18;;;;;;;4.60;1.33;;;;;;;;;;4948539;28;20090;-80
2022/04/19 15:15:45;;;;;;;4.00;1.83;;;;;;;;;;4949788;28;20575;-80
2022/04/19 15:18:13;;;;;;;2.72;1.60;;;;;;;;;;4948018;29;20403;-79
2022/04/19 15:20:40;;;;;;;5.72;1.48;;;;;;;;;;4948745;28;20043;-80
2022/04/19 15:23:08;;;;;;;5.07;1.33;;;;;;;;;;4948323;29;20138;-80
2022/04/19 15:25:36;;;;;;;6.13;1.50;;;;;;;;;;4948789;29;20083;-80
2022/04/19 15:28:05;;;;;;;5.90;1.50;;;;;;;;;;4947429;29;20093;-80
2022/04/19 15:30:33;;;;;;;4.95;1.58;;;;;;;;;;4947038;29;20568;-80
2022/04/19 15:33:00;;;;;;;3.38;1.20;;;;;;;;;;4948807;28;20150;-80
2022/04/19 15:35:27;;;;;;;2.28;1.30;;;;;;;;;;4947359;29;20879;-80
2022/04/19 15:37:54;;;;;;;6.40;1.80;;;;;;;;;;4941913;29;20097;-80
2022/04/19 15:40:22;;;;;;;12.02;2.25;;;;;;;;;;4949658;29;20074;-79
2022/04/19 15:42:49;;;;;;;2.90;1.63;;;;;;;;;;4933749;29;20055;-80
2022/04/19 15:45:16;;;;;;;10.27;1.73;;;;;;;;;;4932346;29;20126;-80
2022/04/19 15:47:45;;;;;;;18.73;2.17;;;;;;;;;;4933205;29;20102;-80
2022/04/19 15:50:12;;;;;;;3.83;1.52;;;;;;;;;;4931523;29;20140;-80
2022/04/19 15:52:39;;;;;;;5.22;2.00;;;;;;;;;;4932900;29;20059;-80